Latest Weather Observations for Whyalla

IDS60801

Issued at 4:02 pm CDT Thursday 8 December 2016 (issued every 30 minutes, with the page automatically refreshed every 10 minutes)

About weather observations | Map of weather stations | Latest weather observations for SA | Other Formats
Station Details ID: 018120 Name: WHYALLA AERO Lat: -33.05 Lon: 137.52 Height: 9.3 m
Data from the previous 72 hours. | See also: Recent months at Whyalla
Date/Time
CDT
Temp
°C
App
Temp
°C
Dew
Point
°C
Rel
Hum
%
Delta-T
°C
Wind Press
QNH
hPa
Press
MSL
hPa
Rain since
9am
mm
Dir  Spd
km/h
Gust
km/h
Spd
kts
Gust
kts
08/03:30pm 20.7 12.8 9.3 48 6.1 S 41 56 22 30 1011.9 1011.8 0.0
08/03:00pm 19.7 12.7 9.9 53 5.2 S 37 50 20 27 1011.8 1011.7 0.0
08/02:48pm 20.5 14.4 10.3 52 5.5 S 33 54 18 29 1011.9 1011.8 0.0
08/02:30pm 21.3 15.2 10.5 50 5.9 S 33 50 18 27 1012.0 1011.9 0.0
08/02:00pm 22.9 15.9 6.2 34 8.5 SW 32 46 17 25 1012.0 1011.9 0.0
08/01:30pm 21.8 15.8 6.9 38 7.6 SW 28 43 15 23 1012.4 1012.3 0.0
08/01:12pm 21.6 14.3 4.7 33 8.3 SSW 32 50 17 27 1012.2 1012.1 0.0
08/01:00pm 22.1 15.1 5.9 35 8.2 SW 32 46 17 25 1012.4 1012.3 0.0
08/12:35pm 21.7 14.7 3.9 31 8.6 WSW 30 54 16 29 1012.1 1012.0 0.0
08/12:30pm 22.3 15.3 3.9 30 8.9 WSW 30 46 16 25 1012.4 1012.3 0.0
08/12:00pm 22.2 15.0 7.6 39 7.6 SW 35 54 19 29 1012.0 1011.9 0.0
08/11:51am 21.5 14.5 5.8 36 7.9 SW 32 54 17 29 1011.8 1011.7 0.0
08/11:30am 20.8 15.3 7.4 42 6.9 SW 26 39 14 21 1011.9 1011.8 0.0
08/11:00am 20.3 13.6 7.3 43 6.6 SW 32 44 17 24 1011.7 1011.6 0.0
08/10:30am 20.2 13.7 8.2 46 6.2 SW 32 44 17 24 1011.6 1011.5 0.0
08/10:00am 19.1 12.3 7.8 48 5.8 SW 33 44 18 24 1011.5 1011.4 0.0
08/09:30am 18.0 11.6 7.1 49 5.5 SW 30 43 16 23 1011.5 1011.4 0.0
08/09:13am 18.1 10.3 6.6 47 5.7 SW 37 56 20 30 1011.2 1011.1 0.0
08/09:00am 18.2 11.7 8.2 52 5.1 SW 32 44 17 24 1011.2 1011.1 4.8
08/08:30am 17.2 10.5 8.1 55 4.6 WSW 33 46 18 25 1010.8 1010.7 4.8
08/08:00am 16.5 11.1 9.4 63 3.7 WSW 28 39 15 21 1010.6 1010.5 4.8
08/07:30am 15.9 12.0 9.3 65 3.4 W 20 30 11 16 1010.0 1009.9 4.8
08/07:00am 15.2 12.5 10.2 72 2.6 WSW 15 20 8 11 1009.8 1009.7 4.8
08/06:30am 14.4 11.3 10.4 77 2.1 WSW 17 24 9 13 1009.4 1009.3 4.8
08/06:00am 14.9 10.9 10.3 74 2.4 WSW 22 41 12 22 1008.7 1008.6 4.8
08/05:30am 15.3 11.0 10.7 74 2.4 SW 24 35 13 19 1008.3 1008.2 4.8
08/05:00am 16.1 10.3 10.8 71 2.8 SW 32 50 17 27 1007.4 1007.3 4.8
08/04:38am 17.4 12.5 12.7 74 2.6 SW 30 50 16 27 1006.5 1006.4 4.8
08/04:30am 18.0 13.9 13.9 77 2.3 WSW 28 37 15 20 1006.6 1006.5 4.8
08/04:00am 18.3 14.3 14.0 76 2.5 SW 28 39 15 21 1006.0 1005.9 4.8
08/03:30am 18.9 15.4 15.6 81 2.0 WSW 28 39 15 21 1005.4 1005.3 4.8
08/03:00am 20.0 17.9 17.2 84 1.7 WSW 24 35 13 19 1004.7 1004.6 4.8
08/02:30am 20.5 19.8 18.3 87 1.4 W 19 24 10 13 1004.5 1004.4 4.8
08/02:00am 21.2 21.6 19.8 92 0.9 WNW 17 20 9 11 1004.2 1004.1 4.8
08/01:30am 21.3 21.7 19.9 92 0.9 WNW 17 22 9 12 1004.3 1004.2 4.8
08/01:00am 21.6 21.6 20.2 92 0.9 WNW 20 24 11 13 1004.1 1004.0 3.0
08/12:30am 22.0 21.8 20.6 92 0.9 WNW 22 33 12 18 1004.0 1003.9 2.6
08/12:14am 21.9 16.2 20.2 90 1.1 W 50 74 27 40 1004.1 1004.0 1.6
08/12:07am 22.1 14.8 18.3 79 2.4 W 54 83 29 45 1003.1 1003.0 0.6
08/12:05am 24.0 17.1 17.5 67 4.0 WNW 50 83 27 45 1002.9 1002.8 0.0
08/12:01am 29.9 23.4 15.2 41 9.0 NNW 43 83 23 45 1002.5 1002.4 0.0
08/12:00am 31.4 24.3 12.2 30 11.4 NNW 41 59 22 32 1001.9 1001.8 0.0
 
Date/Time
CDT
Temp
°C
App
Temp
°C
Dew
Point
°C
Rel
Hum
%
Delta-T
°C
Wind Press
QNH
hPa
Press
MSL
hPa
Rain since
9am
mm
Dir  Spd
km/h
Gust
km/h
Spd
kts
Gust
kts
07/11:30pm 32.0 24.0 11.2 28 12.2 N 44 67 24 36 999.2 999.1 0.0
07/11:03pm 31.8 25.9 11.0 28 12.0 N 33 52 18 28 999.3 999.2 0.0
07/11:00pm 31.6 25.6 10.9 28 12.0 N 33 43 18 23 999.3 999.2 0.0
07/10:50pm 31.9 25.1 10.6 27 12.3 N 37 56 20 30 999.5 999.4 0.0
07/10:30pm 32.1 25.9 10.2 26 12.6 N 33 50 18 27 999.8 999.7 0.0
07/10:24pm 32.1 26.1 10.2 26 12.5 N 32 50 17 27 1000.0 999.9 0.0
07/10:00pm 32.1 26.9 10.2 26 12.5 N 28 41 15 22 1000.6 1000.5 0.0
07/09:30pm 31.9 28.3 10.6 27 12.3 N 20 30 11 16 1001.6 1001.5 0.0
07/09:00pm 32.5 27.2 9.9 25 13.0 N 28 35 15 19 1001.6 1001.5 0.0
07/08:30pm 33.4 28.4 9.4 23 13.7 N 26 35 14 19 1002.0 1001.9 0.0
07/08:00pm 33.4 27.6 9.4 23 13.7 NNW 30 44 16 24 1002.1 1002.0 0.0
07/07:30pm 33.8 27.7 9.8 23 13.8 NNW 32 43 17 23 1002.2 1002.1 0.0
07/07:00pm 34.3 29.1 10.2 23 13.9 NNW 28 39 15 21 1002.2 1002.1 0.0
07/06:30pm 34.4 28.5 10.3 23 14.0 NNW 32 44 17 24 1002.6 1002.5 0.0
07/06:00pm 34.1 28.3 9.4 22 14.1 NNW 30 41 16 22 1003.0 1002.9 0.0
07/05:30pm 34.7 28.6 9.9 22 14.4 NNW 32 44 17 24 1003.4 1003.3 0.0
07/05:00pm 34.2 28.7 10.7 24 13.7 NNW 30 37 16 20 1004.1 1004.0 0.0
07/04:53pm 33.8 27.9 10.4 24 13.5 NNW 32 50 17 27 1004.4 1004.3 0.0
07/04:30pm 33.6 28.0 11.5 26 13.0 N 32 44 17 24 1004.8 1004.7 0.0
07/04:00pm 34.2 28.4 11.4 25 13.4 NNW 33 46 18 25 1005.3 1005.2 0.0
07/03:30pm 34.0 28.5 12.4 27 12.9 NNW 33 48 18 26 1006.1 1006.0 0.0
07/03:00pm 32.9 28.0 12.5 29 12.2 NNW 30 41 16 22 1006.9 1006.8 0.0
07/02:30pm 31.7 26.2 12.5 31 11.4 NNW 33 43 18 23 1007.6 1007.5 0.0
07/02:17pm 31.8 26.9 12.6 31 11.4 NNW 30 48 16 26 1007.8 1007.7 0.0
07/02:00pm 31.8 26.0 12.6 31 11.4 N 35 48 19 26 1008.1 1008.0 0.0
07/01:30pm 32.4 26.6 12.6 30 11.8 N 35 44 19 24 1008.7 1008.6 0.0
07/01:00pm 33.5 28.2 13.0 29 12.3 N 33 54 18 29 1009.3 1009.2 0.0
07/12:52pm 32.8 27.1 12.9 29 11.9 N 35 54 19 29 1009.4 1009.3 0.0
07/12:30pm 31.9 26.5 12.7 31 11.4 N 33 50 18 27 1009.8 1009.7 0.0
07/12:20pm 32.1 26.5 13.3 31 11.3 N 35 54 19 29 1010.2 1010.1 0.0
07/12:00pm 31.3 25.8 12.6 31 11.1 N 33 46 18 25 1010.6 1010.5 0.0
07/11:30am 29.6 25.0 13.4 37 9.7 N 30 41 16 22 1011.3 1011.2 0.0
07/11:00am 29.0 24.1 13.6 38 9.2 N 32 41 17 22 1011.9 1011.8 0.0
07/10:50am 29.0 24.6 14.0 39 9.0 N 30 48 16 26 1012.0 1011.9 0.0
07/10:30am 29.6 25.4 14.6 40 9.1 NNW 30 44 16 24 1012.3 1012.2 0.0
07/10:00am 27.1 24.7 12.7 41 8.4 N 17 28 9 15 1012.6 1012.5 0.0
07/09:30am 24.9 24.3 13.5 49 6.7 N 9 17 5 9 1013.0 1012.9 0.0
07/09:00am 21.5 21.8 14.4 64 4.2 NNE 6 13 3 7 1013.3 1013.2 0.0
07/08:30am 20.2 21.3 14.6 70 3.3 S 2 7 1 4 1013.6 1013.5 0.0
07/08:00am 18.8 20.0 13.9 73 2.8 CALM 0 0 0 0 1013.5 1013.4 0.0
07/07:30am 16.6 16.8 13.1 80 2.0 NW 4 6 2 3 1013.5 1013.4 0.0
07/07:00am 14.3 13.8 12.2 87 1.1 NW 6 7 3 4 1013.5 1013.4 0.0
07/06:30am 12.5 11.2 11.2 92 0.7 NNW 9 9 5 5 1013.3 1013.2 0.0
07/06:00am 12.3 10.9 11.0 92 0.7 NW 9 11 5 6 1013.4 1013.3 0.0
07/05:30am 12.6 11.3 11.3 92 0.7 NW 9 11 5 6 1013.3 1013.2 0.0
07/05:00am 13.0 11.4 11.6 91 0.7 NW 11 13 6 7 1013.0 1012.9 0.0
07/04:30am 13.2 12.4 11.8 91 0.7 NNW 7 9 4 5 1012.6 1012.5 0.0
07/04:00am 13.4 12.8 11.8 90 0.9 NW 6 7 3 4 1012.5 1012.4 0.0
07/03:30am 13.8 12.8 12.2 90 0.9 NW 9 11 5 6 1012.8 1012.7 0.0
07/03:00am 14.2 13.6 12.2 88 1.1 WSW 7 9 4 5 1012.7 1012.6 0.0
07/02:30am 14.6 13.7 12.6 88 1.1 SW 9 13 5 7 1013.1 1013.0 0.0
07/02:00am 14.8 13.9 12.5 86 1.3 SW 9 9 5 5 1013.4 1013.3 0.0
07/01:30am 15.8 15.8 13.5 86 1.3 SSW 6 7 3 4 1014.1 1014.0 0.0
07/01:00am 15.8 15.1 13.3 85 1.4 SW 9 13 5 7 1014.6 1014.5 0.0
07/12:30am 16.0 15.0 13.3 84 1.5 SW 11 13 6 7 1015.1 1015.0 0.0
07/12:00am 16.8 15.8 13.5 81 1.9 SW 11 13 6 7 1015.4 1015.3 0.0
 
Date/Time
CDT
Temp
°C
App
Temp
°C
Dew
Point
°C
Rel
Hum
%
Delta-T
°C
Wind Press
QNH
hPa
Press
MSL
hPa
Rain since
9am
mm
Dir  Spd
km/h
Gust
km/h
Spd
kts
Gust
kts
06/11:30pm 17.3 16.0 13.6 79 2.1 SW 13 17 7 9 1015.6 1015.5 0.0
06/11:00pm 17.5 16.6 13.8 79 2.1 SW 11 15 6 8 1015.8 1015.7 0.0
06/10:30pm 17.6 16.8 14.1 80 2.0 SW 11 13 6 7 1015.7 1015.6 0.0
06/10:00pm 17.3 16.4 13.6 79 2.1 SSW 11 11 6 6 1015.6 1015.5 0.0
06/09:30pm 18.1 17.7 14.2 78 2.2 SSW 9 13 5 7 1015.4 1015.3 0.0
06/09:00pm 18.5 17.8 14.2 76 2.5 S 11 15 6 8 1015.3 1015.2 0.0
06/08:30pm 19.0 18.1 13.8 72 3.0 S 11 15 6 8 1015.1 1015.0 0.0
06/08:00pm 19.7 17.2 13.6 68 3.5 S 19 22 10 12 1015.0 1014.9 0.0
06/07:30pm 20.3 17.7 13.7 66 3.8 S 20 24 11 13 1014.8 1014.7 0.0
06/07:00pm 21.1 18.8 13.0 60 4.6 SSE 17 22 9 12 1014.5 1014.4 0.0
06/06:30pm 21.3 18.5 12.7 58 4.9 SSE 19 24 10 13 1014.5 1014.4 0.0
06/06:00pm 21.5 18.3 11.2 52 5.7 SSE 19 26 10 14 1014.5 1014.4 0.0
06/05:30pm 21.9 18.5 10.7 49 6.1 SE 19 22 10 12 1014.2 1014.1 0.0
06/05:00pm 21.1 17.8 11.7 55 5.2 S 20 26 11 14 1014.8 1014.7 0.0
06/04:30pm 22.2 18.5 10.0 46 6.6 S 20 28 11 15 1014.8 1014.7 0.0
06/04:00pm 22.1 17.8 9.3 44 6.9 S 22 30 12 16 1015.0 1014.9 0.0
06/03:30pm 21.8 17.6 11.2 51 5.9 S 24 32 13 17 1015.5 1015.4 0.0
06/03:00pm 20.6 16.9 11.5 56 5.0 S 22 30 12 16 1015.7 1015.6 0.0
06/02:30pm 21.1 17.1 10.6 51 5.7 S 22 30 12 16 1015.6 1015.5 0.0
06/02:00pm 21.6 18.4 13.2 59 4.8 SSW 22 30 12 16 1016.0 1015.9 0.0
06/01:30pm 20.0 16.8 12.0 60 4.4 S 20 28 11 15 1016.4 1016.3 0.0
06/01:00pm 20.2 17.6 11.9 59 4.6 S 17 20 9 11 1016.5 1016.4 0.0
06/12:30pm 20.1 18.0 11.3 57 4.8 SSE 13 19 7 10 1016.3 1016.2 0.0
06/12:00pm 20.0 17.9 12.5 62 4.2 SSE 15 20 8 11 1015.9 1015.8 0.0
06/11:30am 19.4 17.0 12.7 65 3.8 SSE 17 24 9 13 1016.0 1015.9 0.0
06/11:00am 20.6 18.2 13.8 65 3.9 SSE 19 28 10 15 1016.0 1015.9 0.0
06/10:30am 20.7 18.1 13.9 65 3.9 SE 20 30 11 16 1015.3 1015.2 0.0
06/10:00am 20.1 16.8 12.8 63 4.1 SSE 22 30 12 16 1015.5 1015.4 0.0
06/09:30am 19.8 16.7 12.1 61 4.3 S 20 30 11 16 1015.9 1015.8 0.0
06/09:00am 19.2 17.2 12.7 66 3.6 S 15 22 8 12 1016.2 1016.1 0.8
06/08:30am 19.0 16.0 12.7 67 3.5 S 20 24 11 13 1016.0 1015.9 0.8
06/08:00am 18.3 16.6 12.5 69 3.2 SW 13 17 7 9 1015.8 1015.7 0.8
06/07:30am 17.4 15.7 12.3 72 2.8 WSW 13 17 7 9 1015.5 1015.4 0.8
06/07:00am 14.9 14.1 11.7 81 1.7 WSW 7 9 4 5 1014.9 1014.8 0.8
06/06:30am 14.9 13.7 11.5 80 1.8 WSW 9 11 5 6 1014.5 1014.4 0.8
06/06:00am 15.0 13.5 11.8 81 1.7 WSW 11 13 6 7 1014.5 1014.4 0.8
06/05:30am 14.9 14.3 11.7 81 1.7 NW 6 7 3 4 1014.3 1014.2 0.8
06/05:00am 15.0 14.2 11.8 81 1.7 NW 7 11 4 6 1014.2 1014.1 0.8
06/04:30am 15.4 15.6 12.0 80 1.8 WNW 2 6 1 3 1013.8 1013.7 0.8
06/04:00am 15.9 14.9 12.3 79 2.0 WSW 9 9 5 5 1014.3 1014.2 0.8
06/03:30am 16.4 15.1 12.4 77 2.2 SW 11 15 6 8 1014.0 1013.9 0.8
06/03:00am 16.6 14.1 12.4 76 2.3 SSW 17 22 9 12 1013.9 1013.8 0.8
06/02:30am 16.2 14.2 12.6 79 2.0 SW 15 19 8 10 1013.8 1013.7 0.8
06/02:00am 16.1 14.7 12.3 78 2.1 SW 11 15 6 8 1013.8 1013.7 0.8
06/01:30am 16.7 15.3 12.3 75 2.4 SSW 11 15 6 8 1013.5 1013.4 0.8
06/01:00am 17.4 15.5 11.7 69 3.1 SSW 13 19 7 10 1014.0 1013.9 0.8
06/12:30am 17.5 15.4 11.3 67 3.4 S 13 17 7 9 1013.6 1013.5 0.8
06/12:00am 17.7 15.8 11.9 69 3.2 SSE 13 19 7 10 1014.0 1013.9 0.8
 
Date/Time
CDT
Temp
°C
App
Temp
°C
Dew
Point
°C
Rel
Hum
%
Delta-T
°C
Wind Press
QNH
hPa
Press
MSL
hPa
Rain since
9am
mm
Dir  Spd
km/h
Gust
km/h
Spd
kts
Gust
kts
05/11:30pm 17.6 16.8 13.9 79 2.1 S 11 24 6 13 1013.9 1013.8 0.8
05/11:00pm 17.0 15.5 13.1 78 2.2 SSW 13 17 7 9 1013.9 1013.8 0.8
05/10:30pm 17.2 14.8 12.7 75 2.5 SSW 17 22 9 12 1014.1 1014.0 0.8
05/10:00pm 17.2 14.1 12.3 73 2.7 SW 20 28 11 15 1013.9 1013.8 0.8
05/09:30pm 17.5 14.5 12.4 72 2.8 SSW 20 28 11 15 1014.0 1013.9 0.8
05/09:00pm 17.7 13.4 12.2 70 3.0 SSW 26 35 14 19 1013.8 1013.7 0.8
05/08:30pm 17.8 12.8 12.3 70 3.0 SSW 30 41 16 22 1013.3 1013.2 0.8
05/08:00pm 18.2 15.0 13.1 72 2.9 SSW 22 30 12 16 1012.4 1012.3 0.8
05/07:30pm 18.2 14.2 12.9 71 3.0 SSW 26 35 14 19 1011.8 1011.7 0.8
05/07:00pm 18.2 14.2 12.9 71 3.0 S 26 35 14 19 1011.6 1011.5 0.8
05/06:30pm 18.3 14.7 13.0 71 3.0 S 24 33 13 18 1010.9 1010.8 0.8
05/06:00pm 18.6 15.4 13.0 70 3.2 SSW 22 32 12 17 1012.6 1012.5 0.8
05/05:30pm 18.5 15.2 12.9 70 3.1 S 22 32 12 17 1012.7 1012.6 0.8
05/05:00pm 18.8 15.4 12.5 67 3.5 S 22 30 12 16 1012.5 1012.4 0.8
05/04:30pm 20.1 15.7 11.8 59 4.6 S 26 33 14 18 1012.0 1011.9 0.8

Other Formats:

Comma delimited format used in spreadsheet applications
http://www.bom.gov.au/fwo/IDS60801/IDS60801.95664.axf

JavaScript Object Notation format (JSON) in row-major order
http://www.bom.gov.au/fwo/IDS60801/IDS60801.95664.json